sensor_id;sensor_type;location;lat;lon;timestamp;P1;durP1;ratioP1;P2;durP2;ratioP2
13805;SDS011;6974;53.606;9.872;2023-08-31T00:00:06;10.13;;;9.30;;
13805;SDS011;6974;53.606;9.872;2023-08-31T00:02:36;9.67;;;8.87;;
13805;SDS011;6974;53.606;9.872;2023-08-31T00:05:04;10.00;;;9.13;;
13805;SDS011;6974;53.606;9.872;2023-08-31T00:07:31;9.17;;;8.37;;
13805;SDS011;6974;53.606;9.872;2023-08-31T00:09:58;8.77;;;7.87;;
13805;SDS011;6974;53.606;9.872;2023-08-31T00:12:25;8.87;;;8.07;;
13805;SDS011;6974;53.606;9.872;2023-08-31T00:14:52;10.13;;;9.13;;
13805;SDS011;6974;53.606;9.872;2023-08-31T00:17:19;8.70;;;7.90;;
13805;SDS011;6974;53.606;9.872;2023-08-31T00:19:47;8.73;;;7.93;;
13805;SDS011;6974;53.606;9.872;2023-08-31T00:22:14;9.20;;;8.40;;
13805;SDS011;6974;53.606;9.872;2023-08-31T00:24:41;8.67;;;7.83;;
13805;SDS011;6974;53.606;9.872;2023-08-31T00:27:08;9.13;;;8.33;;
13805;SDS011;6974;53.606;9.872;2023-08-31T00:29:37;8.67;;;7.87;;
13805;SDS011;6974;53.606;9.872;2023-08-31T00:32:04;9.23;;;8.40;;
13805;SDS011;6974;53.606;9.872;2023-08-31T00:34:31;8.43;;;7.57;;
13805;SDS011;6974;53.606;9.872;2023-08-31T00:36:59;7.93;;;7.20;;
13805;SDS011;6974;53.606;9.872;2023-08-31T00:39:26;8.33;;;7.60;;
13805;SDS011;6974;53.606;9.872;2023-08-31T00:41:53;8.50;;;7.53;;
13805;SDS011;6974;53.606;9.872;2023-08-31T00:44:21;8.10;;;7.30;;
13805;SDS011;6974;53.606;9.872;2023-08-31T00:46:47;8.30;;;7.60;;
13805;SDS011;6974;53.606;9.872;2023-08-31T00:49:14;9.20;;;8.40;;
13805;SDS011;6974;53.606;9.872;2023-08-31T00:51:42;8.63;;;7.73;;
13805;SDS011;6974;53.606;9.872;2023-08-31T00:54:15;8.93;;;8.13;;
13805;SDS011;6974;53.606;9.872;2023-08-31T00:56:43;8.33;;;7.53;;
13805;SDS011;6974;53.606;9.872;2023-08-31T00:59:10;8.43;;;7.63;;
13805;SDS011;6974;53.606;9.872;2023-08-31T01:01:39;8.40;;;7.67;;
13805;SDS011;6974;53.606;9.872;2023-08-31T01:04:16;7.87;;;7.07;;
13805;SDS011;6974;53.606;9.872;2023-08-31T01:06:51;8.53;;;7.73;;
13805;SDS011;6974;53.606;9.872;2023-08-31T01:09:30;9.93;;;8.17;;
13805;SDS011;6974;53.606;9.872;2023-08-31T01:12:02;8.10;;;7.30;;
13805;SDS011;6974;53.606;9.872;2023-08-31T01:14:34;8.50;;;7.70;;
13805;SDS011;6974;53.606;9.872;2023-08-31T01:17:08;7.70;;;7.00;;
13805;SDS011;6974;53.606;9.872;2023-08-31T01:19:44;7.60;;;6.90;;
13805;SDS011;6974;53.606;9.872;2023-08-31T01:22:15;8.17;;;7.47;;
13805;SDS011;6974;53.606;9.872;2023-08-31T01:24:52;10.53;;;7.20;;
13805;SDS011;6974;53.606;9.872;2023-08-31T01:27:20;7.83;;;7.03;;
13805;SDS011;6974;53.606;9.872;2023-08-31T01:29:47;7.37;;;6.67;;
13805;SDS011;6974;53.606;9.872;2023-08-31T01:32:14;7.13;;;6.50;;
13805;SDS011;6974;53.606;9.872;2023-08-31T01:34:41;7.87;;;7.00;;
13805;SDS011;6974;53.606;9.872;2023-08-31T01:37:08;7.53;;;6.83;;
13805;SDS011;6974;53.606;9.872;2023-08-31T01:39:39;7.60;;;6.90;;
13805;SDS011;6974;53.606;9.872;2023-08-31T01:42:13;7.60;;;6.90;;
13805;SDS011;6974;53.606;9.872;2023-08-31T01:44:43;7.63;;;6.93;;
13805;SDS011;6974;53.606;9.872;2023-08-31T01:47:13;7.10;;;6.40;;
13805;SDS011;6974;53.606;9.872;2023-08-31T01:49:44;6.70;;;6.10;;
13805;SDS011;6974;53.606;9.872;2023-08-31T01:52:11;8.03;;;6.73;;
13805;SDS011;6974;53.606;9.872;2023-08-31T01:54:38;8.40;;;6.63;;
13805;SDS011;6974;53.606;9.872;2023-08-31T01:57:05;6.43;;;5.83;;
13805;SDS011;6974;53.606;9.872;2023-08-31T01:59:33;7.17;;;6.47;;
13805;SDS011;6974;53.606;9.872;2023-08-31T02:02:00;7.30;;;6.60;;
13805;SDS011;6974;53.606;9.872;2023-08-31T02:04:27;6.30;;;5.70;;
13805;SDS011;6974;53.606;9.872;2023-08-31T02:06:54;7.00;;;6.10;;
13805;SDS011;6974;53.606;9.872;2023-08-31T02:09:21;6.70;;;6.10;;
13805;SDS011;6974;53.606;9.872;2023-08-31T02:11:48;6.90;;;6.20;;
13805;SDS011;6974;53.606;9.872;2023-08-31T02:14:15;7.40;;;6.33;;
13805;SDS011;6974;53.606;9.872;2023-08-31T02:16:44;7.53;;;6.10;;
13805;SDS011;6974;53.606;9.872;2023-08-31T02:19:11;6.90;;;6.20;;
13805;SDS011;6974;53.606;9.872;2023-08-31T02:21:38;6.30;;;5.70;;
13805;SDS011;6974;53.606;9.872;2023-08-31T02:24:05;6.57;;;5.80;;
13805;SDS011;6974;53.606;9.872;2023-08-31T02:26:32;6.87;;;5.97;;
13805;SDS011;6974;53.606;9.872;2023-08-31T02:29:01;6.47;;;5.93;;
13805;SDS011;6974;53.606;9.872;2023-08-31T02:31:28;8.47;;;7.00;;
13805;SDS011;6974;53.606;9.872;2023-08-31T02:33:56;9.33;;;6.37;;
13805;SDS011;6974;53.606;9.872;2023-08-31T02:36:23;6.93;;;6.10;;
13805;SDS011;6974;53.606;9.872;2023-08-31T02:38:50;6.90;;;6.30;;
13805;SDS011;6974;53.606;9.872;2023-08-31T02:41:18;6.77;;;5.63;;
13805;SDS011;6974;53.606;9.872;2023-08-31T02:43:45;9.33;;;5.40;;
13805;SDS011;6974;53.606;9.872;2023-08-31T02:46:12;5.70;;;5.20;;
13805;SDS011;6974;53.606;9.872;2023-08-31T02:48:39;6.67;;;6.07;;
13805;SDS011;6974;53.606;9.872;2023-08-31T02:51:07;6.97;;;6.27;;
13805;SDS011;6974;53.606;9.872;2023-08-31T02:53:34;6.43;;;5.43;;
13805;SDS011;6974;53.606;9.872;2023-08-31T02:56:01;6.27;;;5.60;;
13805;SDS011;6974;53.606;9.872;2023-08-31T02:58:28;6.63;;;5.57;;
13805;SDS011;6974;53.606;9.872;2023-08-31T03:00:55;5.90;;;5.40;;
13805;SDS011;6974;53.606;9.872;2023-08-31T03:03:33;5.63;;;5.13;;
13805;SDS011;6974;53.606;9.872;2023-08-31T03:06:00;6.10;;;5.50;;
13805;SDS011;6974;53.606;9.872;2023-08-31T03:08:28;6.60;;;5.63;;
13805;SDS011;6974;53.606;9.872;2023-08-31T03:10:56;5.77;;;5.07;;
13805;SDS011;6974;53.606;9.872;2023-08-31T03:13:24;7.77;;;5.50;;
13805;SDS011;6974;53.606;9.872;2023-08-31T03:15:51;7.27;;;5.73;;
13805;SDS011;6974;53.606;9.872;2023-08-31T03:18:17;6.80;;;5.93;;
13805;SDS011;6974;53.606;9.872;2023-08-31T03:20:44;8.10;;;5.37;;
13805;SDS011;6974;53.606;9.872;2023-08-31T03:23:11;5.87;;;4.93;;
13805;SDS011;6974;53.606;9.872;2023-08-31T03:25:39;7.03;;;5.20;;
13805;SDS011;6974;53.606;9.872;2023-08-31T03:28:06;5.17;;;4.67;;
13805;SDS011;6974;53.606;9.872;2023-08-31T03:30:33;7.80;;;4.73;;
13805;SDS011;6974;53.606;9.872;2023-08-31T03:33:00;8.40;;;5.27;;
13805;SDS011;6974;53.606;9.872;2023-08-31T03:35:27;7.27;;;6.30;;
13805;SDS011;6974;53.606;9.872;2023-08-31T03:37:54;6.50;;;5.30;;
13805;SDS011;6974;53.606;9.872;2023-08-31T03:40:21;5.63;;;4.43;;
13805;SDS011;6974;53.606;9.872;2023-08-31T03:42:50;7.07;;;5.10;;
13805;SDS011;6974;53.606;9.872;2023-08-31T03:45:19;5.87;;;4.50;;
13805;SDS011;6974;53.606;9.872;2023-08-31T03:47:45;7.40;;;5.30;;
13805;SDS011;6974;53.606;9.872;2023-08-31T03:50:12;4.87;;;4.47;;
13805;SDS011;6974;53.606;9.872;2023-08-31T03:52:39;6.90;;;4.77;;
13805;SDS011;6974;53.606;9.872;2023-08-31T03:55:06;6.27;;;4.53;;
13805;SDS011;6974;53.606;9.872;2023-08-31T03:57:33;6.07;;;4.67;;
13805;SDS011;6974;53.606;9.872;2023-08-31T04:00:02;6.13;;;3.93;;
13805;SDS011;6974;53.606;9.872;2023-08-31T04:02:33;4.73;;;3.67;;
13805;SDS011;6974;53.606;9.872;2023-08-31T04:05:00;3.87;;;3.57;;
13805;SDS011;6974;53.606;9.872;2023-08-31T04:07:30;5.37;;;3.80;;
13805;SDS011;6974;53.606;9.872;2023-08-31T04:09:57;4.90;;;3.97;;
13805;SDS011;6974;53.606;9.872;2023-08-31T04:12:24;6.13;;;3.77;;
13805;SDS011;6974;53.606;9.872;2023-08-31T04:14:51;4.83;;;3.93;;
13805;SDS011;6974;53.606;9.872;2023-08-31T04:17:19;4.20;;;3.80;;
13805;SDS011;6974;53.606;9.872;2023-08-31T04:19:46;4.43;;;4.03;;
13805;SDS011;6974;53.606;9.872;2023-08-31T04:22:13;4.37;;;3.53;;
13805;SDS011;6974;53.606;9.872;2023-08-31T04:24:39;4.60;;;3.67;;
13805;SDS011;6974;53.606;9.872;2023-08-31T04:27:06;5.50;;;3.50;;
13805;SDS011;6974;53.606;9.872;2023-08-31T04:29:33;4.07;;;3.67;;
13805;SDS011;6974;53.606;9.872;2023-08-31T04:32:01;4.10;;;3.57;;
13805;SDS011;6974;53.606;9.872;2023-08-31T04:34:29;5.17;;;3.83;;
13805;SDS011;6974;53.606;9.872;2023-08-31T04:36:56;5.20;;;4.07;;
13805;SDS011;6974;53.606;9.872;2023-08-31T04:39:23;4.00;;;3.53;;
13805;SDS011;6974;53.606;9.872;2023-08-31T04:41:50;4.70;;;3.73;;
13805;SDS011;6974;53.606;9.872;2023-08-31T04:44:17;4.53;;;3.83;;
13805;SDS011;6974;53.606;9.872;2023-08-31T04:46:44;5.83;;;4.20;;
13805;SDS011;6974;53.606;9.872;2023-08-31T04:49:11;5.97;;;4.40;;
13805;SDS011;6974;53.606;9.872;2023-08-31T04:51:39;5.07;;;4.30;;
13805;SDS011;6974;53.606;9.872;2023-08-31T04:54:07;6.63;;;3.90;;
13805;SDS011;6974;53.606;9.872;2023-08-31T04:56:34;5.17;;;4.50;;
13805;SDS011;6974;53.606;9.872;2023-08-31T04:59:02;7.93;;;5.00;;
13805;SDS011;6974;53.606;9.872;2023-08-31T05:01:29;6.73;;;4.83;;
13805;SDS011;6974;53.606;9.872;2023-08-31T05:03:56;6.53;;;4.17;;
13805;SDS011;6974;53.606;9.872;2023-08-31T05:06:23;5.83;;;4.50;;
13805;SDS011;6974;53.606;9.872;2023-08-31T05:08:52;7.70;;;6.10;;
13805;SDS011;6974;53.606;9.872;2023-08-31T05:11:19;8.77;;;6.00;;
13805;SDS011;6974;53.606;9.872;2023-08-31T05:13:46;6.77;;;4.63;;
13805;SDS011;6974;53.606;9.872;2023-08-31T05:16:13;5.27;;;4.77;;
13805;SDS011;6974;53.606;9.872;2023-08-31T05:18:40;6.37;;;5.30;;
13805;SDS011;6974;53.606;9.872;2023-08-31T05:21:07;6.27;;;4.40;;
13805;SDS011;6974;53.606;9.872;2023-08-31T05:23:34;6.00;;;5.13;;
13805;SDS011;6974;53.606;9.872;2023-08-31T05:26:03;5.70;;;5.10;;
13805;SDS011;6974;53.606;9.872;2023-08-31T05:28:29;8.90;;;5.30;;
13805;SDS011;6974;53.606;9.872;2023-08-31T05:30:56;6.47;;;5.17;;
13805;SDS011;6974;53.606;9.872;2023-08-31T05:33:24;5.73;;;5.10;;
13805;SDS011;6974;53.606;9.872;2023-08-31T05:35:53;6.83;;;5.47;;
13805;SDS011;6974;53.606;9.872;2023-08-31T05:38:20;6.80;;;5.73;;
13805;SDS011;6974;53.606;9.872;2023-08-31T05:40:48;6.77;;;6.13;;
13805;SDS011;6974;53.606;9.872;2023-08-31T05:43:16;8.10;;;5.80;;
13805;SDS011;6974;53.606;9.872;2023-08-31T05:45:43;5.80;;;5.13;;
13805;SDS011;6974;53.606;9.872;2023-08-31T05:48:11;8.87;;;5.73;;
13805;SDS011;6974;53.606;9.872;2023-08-31T05:50:38;8.10;;;5.80;;
13805;SDS011;6974;53.606;9.872;2023-08-31T05:53:08;7.27;;;5.40;;
13805;SDS011;6974;53.606;9.872;2023-08-31T05:55:35;7.37;;;5.80;;
13805;SDS011;6974;53.606;9.872;2023-08-31T05:58:02;7.70;;;5.40;;
13805;SDS011;6974;53.606;9.872;2023-08-31T06:00:31;7.60;;;5.17;;
13805;SDS011;6974;53.606;9.872;2023-08-31T06:02:58;9.43;;;5.50;;
13805;SDS011;6974;53.606;9.872;2023-08-31T06:05:25;5.90;;;5.17;;
13805;SDS011;6974;53.606;9.872;2023-08-31T06:07:52;9.07;;;5.80;;
13805;SDS011;6974;53.606;9.872;2023-08-31T06:10:19;7.80;;;5.80;;
13805;SDS011;6974;53.606;9.872;2023-08-31T06:12:48;7.63;;;5.60;;
13805;SDS011;6974;53.606;9.872;2023-08-31T06:15:15;9.93;;;5.40;;
13805;SDS011;6974;53.606;9.872;2023-08-31T06:17:43;6.03;;;5.17;;
13805;SDS011;6974;53.606;9.872;2023-08-31T06:20:10;7.27;;;5.13;;
13805;SDS011;6974;53.606;9.872;2023-08-31T06:22:37;6.23;;;5.00;;
13805;SDS011;6974;53.606;9.872;2023-08-31T06:25:04;10.13;;;5.53;;
13805;SDS011;6974;53.606;9.872;2023-08-31T06:27:33;7.07;;;5.20;;
13805;SDS011;6974;53.606;9.872;2023-08-31T06:30:00;6.50;;;5.30;;
13805;SDS011;6974;53.606;9.872;2023-08-31T06:32:28;6.13;;;4.77;;
13805;SDS011;6974;53.606;9.872;2023-08-31T06:34:57;6.53;;;5.50;;
13805;SDS011;6974;53.606;9.872;2023-08-31T06:37:24;8.67;;;5.67;;
13805;SDS011;6974;53.606;9.872;2023-08-31T06:39:51;7.87;;;4.90;;
13805;SDS011;6974;53.606;9.872;2023-08-31T06:42:18;6.77;;;4.90;;
13805;SDS011;6974;53.606;9.872;2023-08-31T06:44:45;6.70;;;4.67;;
13805;SDS011;6974;53.606;9.872;2023-08-31T06:47:12;7.80;;;5.00;;
13805;SDS011;6974;53.606;9.872;2023-08-31T06:49:42;7.93;;;4.87;;
13805;SDS011;6974;53.606;9.872;2023-08-31T06:52:10;7.23;;;5.13;;
13805;SDS011;6974;53.606;9.872;2023-08-31T06:54:37;9.13;;;5.90;;
13805;SDS011;6974;53.606;9.872;2023-08-31T06:57:04;5.37;;;4.87;;
13805;SDS011;6974;53.606;9.872;2023-08-31T06:59:31;7.43;;;5.87;;
13805;SDS011;6974;53.606;9.872;2023-08-31T07:01:58;6.67;;;4.90;;
13805;SDS011;6974;53.606;9.872;2023-08-31T07:04:26;7.20;;;4.97;;
13805;SDS011;6974;53.606;9.872;2023-08-31T07:06:53;5.17;;;4.63;;
13805;SDS011;6974;53.606;9.872;2023-08-31T07:09:21;6.10;;;3.97;;
13805;SDS011;6974;53.606;9.872;2023-08-31T07:11:48;4.67;;;3.80;;
13805;SDS011;6974;53.606;9.872;2023-08-31T07:14:15;5.40;;;3.60;;
13805;SDS011;6974;53.606;9.872;2023-08-31T07:16:42;6.67;;;3.60;;
13805;SDS011;6974;53.606;9.872;2023-08-31T07:19:08;5.80;;;3.57;;
13805;SDS011;6974;53.606;9.872;2023-08-31T07:21:35;4.43;;;3.33;;
13805;SDS011;6974;53.606;9.872;2023-08-31T07:24:03;4.73;;;3.30;;
13805;SDS011;6974;53.606;9.872;2023-08-31T07:26:31;3.73;;;3.07;;
13805;SDS011;6974;53.606;9.872;2023-08-31T07:28:59;3.27;;;2.60;;
13805;SDS011;6974;53.606;9.872;2023-08-31T07:31:26;5.07;;;3.13;;
13805;SDS011;6974;53.606;9.872;2023-08-31T07:33:53;3.90;;;3.00;;
13805;SDS011;6974;53.606;9.872;2023-08-31T07:36:20;3.57;;;2.83;;
13805;SDS011;6974;53.606;9.872;2023-08-31T07:38:47;6.30;;;3.20;;
13805;SDS011;6974;53.606;9.872;2023-08-31T07:41:14;4.30;;;2.93;;
13805;SDS011;6974;53.606;9.872;2023-08-31T07:43:42;3.20;;;2.60;;
13805;SDS011;6974;53.606;9.872;2023-08-31T07:46:09;5.07;;;3.00;;
13805;SDS011;6974;53.606;9.872;2023-08-31T07:48:36;8.17;;;3.10;;
13805;SDS011;6974;53.606;9.872;2023-08-31T07:51:03;3.83;;;2.80;;
13805;SDS011;6974;53.606;9.872;2023-08-31T07:53:30;4.57;;;2.83;;
13805;SDS011;6974;53.606;9.872;2023-08-31T07:55:57;3.73;;;2.93;;
13805;SDS011;6974;53.606;9.872;2023-08-31T07:58:24;4.10;;;3.50;;
13805;SDS011;6974;53.606;9.872;2023-08-31T08:00:53;4.13;;;2.97;;
13805;SDS011;6974;53.606;9.872;2023-08-31T08:03:21;4.27;;;2.90;;
13805;SDS011;6974;53.606;9.872;2023-08-31T08:05:48;4.13;;;2.97;;
13805;SDS011;6974;53.606;9.872;2023-08-31T08:08:15;5.20;;;3.40;;
13805;SDS011;6974;53.606;9.872;2023-08-31T08:10:42;4.77;;;3.20;;
13805;SDS011;6974;53.606;9.872;2023-08-31T08:13:09;5.00;;;3.20;;
13805;SDS011;6974;53.606;9.872;2023-08-31T08:15:37;3.80;;;3.40;;
13805;SDS011;6974;53.606;9.872;2023-08-31T08:18:06;4.97;;;3.87;;
13805;SDS011;6974;53.606;9.872;2023-08-31T08:20:33;4.27;;;3.23;;
13805;SDS011;6974;53.606;9.872;2023-08-31T08:23:00;4.17;;;3.30;;
13805;SDS011;6974;53.606;9.872;2023-08-31T08:25:26;7.50;;;4.03;;
13805;SDS011;6974;53.606;9.872;2023-08-31T08:27:53;4.73;;;3.73;;
13805;SDS011;6974;53.606;9.872;2023-08-31T08:30:20;4.23;;;3.30;;
13805;SDS011;6974;53.606;9.872;2023-08-31T08:32:47;5.63;;;3.50;;
13805;SDS011;6974;53.606;9.872;2023-08-31T08:35:16;4.50;;;3.23;;
13805;SDS011;6974;53.606;9.872;2023-08-31T08:37:42;4.00;;;3.17;;
13805;SDS011;6974;53.606;9.872;2023-08-31T08:40:09;5.23;;;3.67;;
13805;SDS011;6974;53.606;9.872;2023-08-31T08:42:38;5.30;;;3.87;;
13805;SDS011;6974;53.606;9.872;2023-08-31T08:45:08;7.03;;;3.40;;
13805;SDS011;6974;53.606;9.872;2023-08-31T08:47:41;5.13;;;3.97;;
13805;SDS011;6974;53.606;9.872;2023-08-31T08:50:09;5.23;;;3.40;;
13805;SDS011;6974;53.606;9.872;2023-08-31T08:52:38;4.10;;;3.70;;
13805;SDS011;6974;53.606;9.872;2023-08-31T08:55:06;4.80;;;3.90;;
13805;SDS011;6974;53.606;9.872;2023-08-31T08:57:34;7.73;;;4.27;;
13805;SDS011;6974;53.606;9.872;2023-08-31T09:00:01;5.50;;;3.70;;
13805;SDS011;6974;53.606;9.872;2023-08-31T09:02:29;4.60;;;3.50;;
13805;SDS011;6974;53.606;9.872;2023-08-31T09:04:56;3.70;;;3.37;;
13805;SDS011;6974;53.606;9.872;2023-08-31T09:07:23;4.37;;;3.20;;
13805;SDS011;6974;53.606;9.872;2023-08-31T09:09:52;5.43;;;3.17;;
13805;SDS011;6974;53.606;9.872;2023-08-31T09:12:21;3.77;;;3.10;;
13805;SDS011;6974;53.606;9.872;2023-08-31T09:14:58;4.83;;;3.47;;
13805;SDS011;6974;53.606;9.872;2023-08-31T09:17:26;10.87;;;5.33;;
13805;SDS011;6974;53.606;9.872;2023-08-31T09:20:03;3.70;;;2.73;;
13805;SDS011;6974;53.606;9.872;2023-08-31T09:22:32;5.90;;;2.93;;
13805;SDS011;6974;53.606;9.872;2023-08-31T09:25:01;5.00;;;3.13;;
13805;SDS011;6974;53.606;9.872;2023-08-31T09:27:29;4.17;;;3.03;;
13805;SDS011;6974;53.606;9.872;2023-08-31T09:29:58;4.83;;;3.70;;
13805;SDS011;6974;53.606;9.872;2023-08-31T09:32:25;7.13;;;3.93;;
13805;SDS011;6974;53.606;9.872;2023-08-31T09:34:51;4.43;;;3.40;;
13805;SDS011;6974;53.606;9.872;2023-08-31T09:37:18;4.83;;;3.80;;
13805;SDS011;6974;53.606;9.872;2023-08-31T09:39:45;4.77;;;3.40;;
13805;SDS011;6974;53.606;9.872;2023-08-31T09:42:13;3.43;;;3.10;;
13805;SDS011;6974;53.606;9.872;2023-08-31T09:44:41;4.43;;;3.70;;
13805;SDS011;6974;53.606;9.872;2023-08-31T09:47:09;4.53;;;3.10;;
13805;SDS011;6974;53.606;9.872;2023-08-31T09:49:37;4.97;;;2.90;;
13805;SDS011;6974;53.606;9.872;2023-08-31T09:52:07;5.97;;;3.30;;
13805;SDS011;6974;53.606;9.872;2023-08-31T09:54:36;4.50;;;3.50;;
13805;SDS011;6974;53.606;9.872;2023-08-31T09:57:03;4.63;;;3.47;;
13805;SDS011;6974;53.606;9.872;2023-08-31T09:59:33;4.33;;;2.90;;
13805;SDS011;6974;53.606;9.872;2023-08-31T10:02:00;3.97;;;3.57;;
13805;SDS011;6974;53.606;9.872;2023-08-31T10:04:29;4.77;;;3.20;;
13805;SDS011;6974;53.606;9.872;2023-08-31T10:06:57;5.83;;;3.43;;
13805;SDS011;6974;53.606;9.872;2023-08-31T10:09:24;4.00;;;3.60;;
13805;SDS011;6974;53.606;9.872;2023-08-31T10:11:52;4.40;;;3.33;;
13805;SDS011;6974;53.606;9.872;2023-08-31T10:14:20;5.43;;;3.13;;
13805;SDS011;6974;53.606;9.872;2023-08-31T10:16:49;5.27;;;3.50;;
13805;SDS011;6974;53.606;9.872;2023-08-31T10:19:18;4.80;;;4.00;;
13805;SDS011;6974;53.606;9.872;2023-08-31T10:21:45;4.73;;;3.77;;
13805;SDS011;6974;53.606;9.872;2023-08-31T10:24:12;6.17;;;3.90;;
13805;SDS011;6974;53.606;9.872;2023-08-31T10:26:38;4.87;;;4.47;;
13805;SDS011;6974;53.606;9.872;2023-08-31T10:29:05;4.63;;;4.20;;
13805;SDS011;6974;53.606;9.872;2023-08-31T10:31:32;5.47;;;4.43;;
13805;SDS011;6974;53.606;9.872;2023-08-31T10:34:02;4.70;;;3.73;;
13805;SDS011;6974;53.606;9.872;2023-08-31T10:36:37;4.43;;;3.77;;
13805;SDS011;6974;53.606;9.872;2023-08-31T10:39:05;5.23;;;4.00;;
13805;SDS011;6974;53.606;9.872;2023-08-31T10:41:37;4.63;;;3.30;;
13805;SDS011;6974;53.606;9.872;2023-08-31T10:44:17;4.47;;;3.63;;
13805;SDS011;6974;53.606;9.872;2023-08-31T10:46:45;6.33;;;3.07;;
13805;SDS011;6974;53.606;9.872;2023-08-31T10:49:14;4.20;;;3.73;;
13805;SDS011;6974;53.606;9.872;2023-08-31T10:51:43;3.33;;;2.97;;
13805;SDS011;6974;53.606;9.872;2023-08-31T10:54:12;4.53;;;2.57;;
13805;SDS011;6974;53.606;9.872;2023-08-31T10:56:52;2.40;;;2.20;;
13805;SDS011;6974;53.606;9.872;2023-08-31T10:59:46;2.57;;;2.37;;
13805;SDS011;6974;53.606;9.872;2023-08-31T11:02:26;5.37;;;2.63;;
13805;SDS011;6974;53.606;9.872;2023-08-31T11:05:01;6.20;;;2.17;;
13805;SDS011;6974;53.606;9.872;2023-08-31T11:07:31;4.40;;;2.47;;
13805;SDS011;6974;53.606;9.872;2023-08-31T11:10:07;3.30;;;1.80;;
13805;SDS011;6974;53.606;9.872;2023-08-31T11:12:38;2.27;;;2.07;;
13805;SDS011;6974;53.606;9.872;2023-08-31T11:15:06;3.27;;;2.07;;
13805;SDS011;6974;53.606;9.872;2023-08-31T11:17:33;2.80;;;2.00;;
13805;SDS011;6974;53.606;9.872;2023-08-31T11:20:02;4.37;;;3.00;;
13805;SDS011;6974;53.606;9.872;2023-08-31T11:22:31;2.03;;;1.77;;
13805;SDS011;6974;53.606;9.872;2023-08-31T11:24:58;3.70;;;2.13;;
13805;SDS011;6974;53.606;9.872;2023-08-31T11:27:25;5.47;;;2.00;;
13805;SDS011;6974;53.606;9.872;2023-08-31T11:29:52;2.70;;;1.90;;
13805;SDS011;6974;53.606;9.872;2023-08-31T11:32:22;2.27;;;1.50;;
13805;SDS011;6974;53.606;9.872;2023-08-31T11:34:49;2.40;;;1.70;;
13805;SDS011;6974;53.606;9.872;2023-08-31T11:37:18;2.73;;;1.73;;
13805;SDS011;6974;53.606;9.872;2023-08-31T11:39:49;3.80;;;1.93;;
13805;SDS011;6974;53.606;9.872;2023-08-31T11:42:16;2.33;;;1.60;;
13805;SDS011;6974;53.606;9.872;2023-08-31T11:44:45;4.10;;;1.67;;
13805;SDS011;6974;53.606;9.872;2023-08-31T11:47:12;2.20;;;1.40;;
13805;SDS011;6974;53.606;9.872;2023-08-31T11:49:40;1.83;;;1.50;;
13805;SDS011;6974;53.606;9.872;2023-08-31T11:52:09;2.10;;;1.50;;
13805;SDS011;6974;53.606;9.872;2023-08-31T11:54:38;4.17;;;1.80;;
13805;SDS011;6974;53.606;9.872;2023-08-31T11:57:06;3.07;;;1.80;;
13805;SDS011;6974;53.606;9.872;2023-08-31T11:59:34;2.33;;;1.80;;
13805;SDS011;6974;53.606;9.872;2023-08-31T12:02:04;2.40;;;1.70;;
13805;SDS011;6974;53.606;9.872;2023-08-31T12:04:33;1.70;;;1.60;;
13805;SDS011;6974;53.606;9.872;2023-08-31T12:07:07;2.20;;;1.60;;
13805;SDS011;6974;53.606;9.872;2023-08-31T12:09:34;2.53;;;1.47;;
13805;SDS011;6974;53.606;9.872;2023-08-31T12:12:03;3.13;;;1.50;;
13805;SDS011;6974;53.606;9.872;2023-08-31T12:14:30;2.50;;;1.50;;
13805;SDS011;6974;53.606;9.872;2023-08-31T12:17:00;1.87;;;1.40;;
13805;SDS011;6974;53.606;9.872;2023-08-31T12:19:28;3.13;;;1.93;;
13805;SDS011;6974;53.606;9.872;2023-08-31T12:21:55;2.70;;;1.90;;
13805;SDS011;6974;53.606;9.872;2023-08-31T12:24:23;1.93;;;1.57;;
13805;SDS011;6974;53.606;9.872;2023-08-31T12:26:50;1.80;;;1.60;;
13805;SDS011;6974;53.606;9.872;2023-08-31T12:29:20;2.17;;;1.30;;
13805;SDS011;6974;53.606;9.872;2023-08-31T12:31:47;1.40;;;1.10;;
13805;SDS011;6974;53.606;9.872;2023-08-31T12:34:14;1.87;;;1.10;;
13805;SDS011;6974;53.606;9.872;2023-08-31T12:36:41;1.53;;;1.43;;
13805;SDS011;6974;53.606;9.872;2023-08-31T12:39:08;2.13;;;1.67;;
13805;SDS011;6974;53.606;9.872;2023-08-31T12:41:35;1.87;;;1.37;;
13805;SDS011;6974;53.606;9.872;2023-08-31T12:44:03;2.10;;;1.57;;
13805;SDS011;6974;53.606;9.872;2023-08-31T12:46:32;1.80;;;1.40;;
13805;SDS011;6974;53.606;9.872;2023-08-31T12:48:59;1.50;;;1.40;;
13805;SDS011;6974;53.606;9.872;2023-08-31T12:51:28;1.40;;;1.30;;
13805;SDS011;6974;53.606;9.872;2023-08-31T12:53:55;1.30;;;1.20;;
13805;SDS011;6974;53.606;9.872;2023-08-31T12:56:22;1.30;;;1.20;;
13805;SDS011;6974;53.606;9.872;2023-08-31T12:58:49;1.47;;;1.27;;
13805;SDS011;6974;53.606;9.872;2023-08-31T13:01:17;1.20;;;1.10;;
13805;SDS011;6974;53.606;9.872;2023-08-31T13:03:46;2.20;;;1.23;;
13805;SDS011;6974;53.606;9.872;2023-08-31T13:06:13;2.60;;;1.70;;
13805;SDS011;6974;53.606;9.872;2023-08-31T13:08:41;2.20;;;1.50;;
13805;SDS011;6974;53.606;9.872;2023-08-31T13:11:09;1.33;;;1.23;;
13805;SDS011;6974;53.606;9.872;2023-08-31T13:13:37;1.63;;;1.47;;
13805;SDS011;6974;53.606;9.872;2023-08-31T13:16:04;1.20;;;1.10;;
13805;SDS011;6974;53.606;9.872;2023-08-31T13:18:31;2.27;;;1.40;;
13805;SDS011;6974;53.606;9.872;2023-08-31T13:20:59;1.80;;;1.30;;
13805;SDS011;6974;53.606;9.872;2023-08-31T13:23:28;1.30;;;1.20;;
13805;SDS011;6974;53.606;9.872;2023-08-31T13:25:55;2.40;;;1.40;;
13805;SDS011;6974;53.606;9.872;2023-08-31T13:28:22;1.90;;;1.30;;
13805;SDS011;6974;53.606;9.872;2023-08-31T13:30:49;1.37;;;1.27;;
13805;SDS011;6974;53.606;9.872;2023-08-31T13:33:16;2.63;;;1.33;;
13805;SDS011;6974;53.606;9.872;2023-08-31T13:35:45;2.30;;;1.40;;
13805;SDS011;6974;53.606;9.872;2023-08-31T13:38:13;1.50;;;1.20;;
13805;SDS011;6974;53.606;9.872;2023-08-31T13:40:40;3.97;;;1.90;;
13805;SDS011;6974;53.606;9.872;2023-08-31T13:43:07;2.20;;;1.20;;
13805;SDS011;6974;53.606;9.872;2023-08-31T13:45:34;1.50;;;1.30;;
13805;SDS011;6974;53.606;9.872;2023-08-31T13:48:01;2.13;;;1.40;;
13805;SDS011;6974;53.606;9.872;2023-08-31T13:50:29;1.83;;;1.40;;
13805;SDS011;6974;53.606;9.872;2023-08-31T13:52:56;2.57;;;1.40;;
13805;SDS011;6974;53.606;9.872;2023-08-31T13:55:24;1.93;;;1.53;;
13805;SDS011;6974;53.606;9.872;2023-08-31T13:57:52;2.60;;;1.47;;
13805;SDS011;6974;53.606;9.872;2023-08-31T14:00:19;1.50;;;1.30;;
13805;SDS011;6974;53.606;9.872;2023-08-31T14:02:46;2.93;;;1.60;;
13805;SDS011;6974;53.606;9.872;2023-08-31T14:05:13;2.97;;;1.60;;
13805;SDS011;6974;53.606;9.872;2023-08-31T14:07:40;2.30;;;1.33;;
13805;SDS011;6974;53.606;9.872;2023-08-31T14:10:07;1.97;;;1.30;;
13805;SDS011;6974;53.606;9.872;2023-08-31T14:12:36;2.93;;;1.60;;
13805;SDS011;6974;53.606;9.872;2023-08-31T14:15:04;2.43;;;1.40;;
13805;SDS011;6974;53.606;9.872;2023-08-31T14:17:31;1.30;;;1.20;;
13805;SDS011;6974;53.606;9.872;2023-08-31T14:19:59;1.50;;;1.20;;
13805;SDS011;6974;53.606;9.872;2023-08-31T14:22:31;2.67;;;1.50;;
13805;SDS011;6974;53.606;9.872;2023-08-31T14:24:57;3.50;;;1.40;;
13805;SDS011;6974;53.606;9.872;2023-08-31T14:27:25;2.37;;;1.53;;
13805;SDS011;6974;53.606;9.872;2023-08-31T14:29:56;4.50;;;1.40;;
13805;SDS011;6974;53.606;9.872;2023-08-31T14:34:58;2.73;;;1.50;;
13805;SDS011;6974;53.606;9.872;2023-08-31T14:37:26;2.10;;;1.10;;
13805;SDS011;6974;53.606;9.872;2023-08-31T14:39:53;2.13;;;1.33;;
13805;SDS011;6974;53.606;9.872;2023-08-31T14:42:20;2.10;;;1.43;;
13805;SDS011;6974;53.606;9.872;2023-08-31T14:44:47;2.20;;;1.40;;
13805;SDS011;6974;53.606;9.872;2023-08-31T14:47:18;2.07;;;1.40;;
13805;SDS011;6974;53.606;9.872;2023-08-31T14:49:45;2.87;;;1.40;;
13805;SDS011;6974;53.606;9.872;2023-08-31T14:52:13;2.03;;;1.20;;
13805;SDS011;6974;53.606;9.872;2023-08-31T14:54:40;1.87;;;1.30;;
13805;SDS011;6974;53.606;9.872;2023-08-31T14:57:07;1.90;;;1.27;;
13805;SDS011;6974;53.606;9.872;2023-08-31T14:59:34;3.03;;;1.77;;
13805;SDS011;6974;53.606;9.872;2023-08-31T15:02:02;1.73;;;1.57;;
13805;SDS011;6974;53.606;9.872;2023-08-31T15:04:32;2.67;;;1.30;;
13805;SDS011;6974;53.606;9.872;2023-08-31T15:07:00;1.80;;;1.20;;